sensor_id;sensor_type;location;lat;lon;timestamp;P1;durP1;ratioP1;P2;durP2;ratioP2
38797;SDS011;24546;52.240;16.826;2022-11-15T00:00:37;172.90;;;58.13;;
38797;SDS011;24546;52.240;16.826;2022-11-15T00:06:01;165.98;;;54.97;;
38797;SDS011;24546;52.240;16.826;2022-11-15T00:11:22;178.63;;;54.30;;
38797;SDS011;24546;52.240;16.826;2022-11-15T00:16:41;186.60;;;55.03;;
38797;SDS011;24546;52.240;16.826;2022-11-15T00:22:01;149.95;;;53.35;;
38797;SDS011;24546;52.240;16.826;2022-11-15T00:27:21;253.50;;;58.92;;
38797;SDS011;24546;52.240;16.826;2022-11-15T00:32:41;172.27;;;51.72;;
38797;SDS011;24546;52.240;16.826;2022-11-15T00:38:00;171.98;;;54.42;;
38797;SDS011;24546;52.240;16.826;2022-11-15T00:43:21;203.48;;;57.20;;
38797;SDS011;24546;52.240;16.826;2022-11-15T00:48:41;219.40;;;56.78;;
38797;SDS011;24546;52.240;16.826;2022-11-15T00:54:00;164.98;;;53.28;;
38797;SDS011;24546;52.240;16.826;2022-11-15T00:59:19;115.00;;;49.95;;
38797;SDS011;24546;52.240;16.826;2022-11-15T01:04:39;222.68;;;56.70;;
38797;SDS011;24546;52.240;16.826;2022-11-15T01:09:58;129.18;;;49.83;;
38797;SDS011;24546;52.240;16.826;2022-11-15T01:15:18;171.93;;;54.63;;
38797;SDS011;24546;52.240;16.826;2022-11-15T01:20:41;127.45;;;54.35;;
38797;SDS011;24546;52.240;16.826;2022-11-15T01:26:01;113.60;;;52.75;;
38797;SDS011;24546;52.240;16.826;2022-11-15T01:31:22;122.63;;;51.55;;
38797;SDS011;24546;52.240;16.826;2022-11-15T01:36:42;96.45;;;49.63;;
38797;SDS011;24546;52.240;16.826;2022-11-15T01:42:02;159.45;;;57.30;;
38797;SDS011;24546;52.240;16.826;2022-11-15T01:47:23;136.32;;;55.78;;
38797;SDS011;24546;52.240;16.826;2022-11-15T01:52:46;146.52;;;56.47;;
38797;SDS011;24546;52.240;16.826;2022-11-15T01:58:06;198.13;;;54.55;;
38797;SDS011;24546;52.240;16.826;2022-11-15T02:03:29;157.45;;;56.28;;
38797;SDS011;24546;52.240;16.826;2022-11-15T02:08:54;152.52;;;56.72;;
38797;SDS011;24546;52.240;16.826;2022-11-15T02:14:16;135.25;;;52.42;;
38797;SDS011;24546;52.240;16.826;2022-11-15T02:30:21;214.23;;;57.97;;
38797;SDS011;24546;52.240;16.826;2022-11-15T02:41:17;196.75;;;60.38;;
38797;SDS011;24546;52.240;16.826;2022-11-15T02:46:51;155.88;;;57.92;;
38797;SDS011;24546;52.240;16.826;2022-11-15T02:52:32;122.90;;;52.22;;
38797;SDS011;24546;52.240;16.826;2022-11-15T02:57:52;110.68;;;51.55;;
38797;SDS011;24546;52.240;16.826;2022-11-15T03:15:01;93.45;;;46.35;;
38797;SDS011;24546;52.240;16.826;2022-11-15T03:20:27;137.23;;;49.97;;
38797;SDS011;24546;52.240;16.826;2022-11-15T03:25:48;138.77;;;46.92;;
38797;SDS011;24546;52.240;16.826;2022-11-15T03:31:10;189.60;;;53.13;;
38797;SDS011;24546;52.240;16.826;2022-11-15T03:36:51;110.88;;;48.22;;
38797;SDS011;24546;52.240;16.826;2022-11-15T03:42:27;122.68;;;48.13;;
38797;SDS011;24546;52.240;16.826;2022-11-15T03:53:20;97.45;;;45.55;;
38797;SDS011;24546;52.240;16.826;2022-11-15T03:58:40;100.85;;;43.45;;
38797;SDS011;24546;52.240;16.826;2022-11-15T04:04:00;117.50;;;44.13;;
38797;SDS011;24546;52.240;16.826;2022-11-15T04:09:19;100.25;;;45.67;;
38797;SDS011;24546;52.240;16.826;2022-11-15T04:14:39;156.77;;;48.67;;
38797;SDS011;24546;52.240;16.826;2022-11-15T04:20:22;135.95;;;43.55;;
38797;SDS011;24546;52.240;16.826;2022-11-15T04:26:02;103.35;;;43.60;;
38797;SDS011;24546;52.240;16.826;2022-11-15T04:31:34;119.85;;;42.35;;
38797;SDS011;24546;52.240;16.826;2022-11-15T04:36:53;153.27;;;44.05;;
38797;SDS011;24546;52.240;16.826;2022-11-15T04:42:31;104.53;;;44.10;;
38797;SDS011;24546;52.240;16.826;2022-11-15T04:47:51;74.05;;;41.13;;
38797;SDS011;24546;52.240;16.826;2022-11-15T04:53:11;99.05;;;43.55;;
38797;SDS011;24546;52.240;16.826;2022-11-15T04:58:31;130.30;;;43.78;;
38797;SDS011;24546;52.240;16.826;2022-11-15T05:03:51;141.80;;;46.50;;
38797;SDS011;24546;52.240;16.826;2022-11-15T05:09:29;182.18;;;45.45;;
38797;SDS011;24546;52.240;16.826;2022-11-15T05:14:49;157.40;;;47.00;;
38797;SDS011;24546;52.240;16.826;2022-11-15T05:20:09;109.30;;;42.90;;
38797;SDS011;24546;52.240;16.826;2022-11-15T05:25:29;191.02;;;52.35;;
38797;SDS011;24546;52.240;16.826;2022-11-15T05:30:49;167.82;;;49.13;;
38797;SDS011;24546;52.240;16.826;2022-11-15T05:41:48;179.30;;;56.47;;
38797;SDS011;24546;52.240;16.826;2022-11-15T05:47:12;183.18;;;55.45;;
38797;SDS011;24546;52.240;16.826;2022-11-15T05:52:35;217.45;;;61.28;;
38797;SDS011;24546;52.240;16.826;2022-11-15T05:57:56;78.57;;;42.53;;
38797;SDS011;24546;52.240;16.826;2022-11-15T06:03:16;100.82;;;48.30;;
38797;SDS011;24546;52.240;16.826;2022-11-15T06:08:36;92.60;;;46.53;;
38797;SDS011;24546;52.240;16.826;2022-11-15T06:13:55;125.32;;;55.17;;
38797;SDS011;24546;52.240;16.826;2022-11-15T06:19:15;165.90;;;58.85;;
38797;SDS011;24546;52.240;16.826;2022-11-15T06:24:35;126.32;;;56.67;;
38797;SDS011;24546;52.240;16.826;2022-11-15T06:29:55;138.25;;;52.20;;
38797;SDS011;24546;52.240;16.826;2022-11-15T06:35:15;115.60;;;48.85;;
38797;SDS011;24546;52.240;16.826;2022-11-15T06:40:35;120.40;;;49.45;;
38797;SDS011;24546;52.240;16.826;2022-11-15T06:45:57;156.68;;;57.20;;
38797;SDS011;24546;52.240;16.826;2022-11-15T06:51:18;94.20;;;47.55;;
38797;SDS011;24546;52.240;16.826;2022-11-15T06:56:38;211.15;;;60.63;;
38797;SDS011;24546;52.240;16.826;2022-11-15T07:01:57;136.95;;;50.60;;
38797;SDS011;24546;52.240;16.826;2022-11-15T07:07:17;109.38;;;46.50;;
38797;SDS011;24546;52.240;16.826;2022-11-15T07:12:37;120.18;;;49.35;;
38797;SDS011;24546;52.240;16.826;2022-11-15T07:18:00;155.43;;;53.92;;
38797;SDS011;24546;52.240;16.826;2022-11-15T07:23:20;104.38;;;49.03;;
38797;SDS011;24546;52.240;16.826;2022-11-15T07:28:39;128.75;;;50.47;;
38797;SDS011;24546;52.240;16.826;2022-11-15T07:33:58;216.00;;;58.47;;
38797;SDS011;24546;52.240;16.826;2022-11-15T07:39:17;93.82;;;46.67;;
38797;SDS011;24546;52.240;16.826;2022-11-15T07:44:37;116.43;;;45.42;;
38797;SDS011;24546;52.240;16.826;2022-11-15T07:49:56;98.60;;;47.38;;
38797;SDS011;24546;52.240;16.826;2022-11-15T07:55:16;95.95;;;45.63;;
38797;SDS011;24546;52.240;16.826;2022-11-15T08:00:35;96.65;;;46.88;;
38797;SDS011;24546;52.240;16.826;2022-11-15T08:05:55;89.72;;;43.75;;
38797;SDS011;24546;52.240;16.826;2022-11-15T08:11:15;98.28;;;46.30;;
38797;SDS011;24546;52.240;16.826;2022-11-15T08:16:34;92.88;;;45.25;;
38797;SDS011;24546;52.240;16.826;2022-11-15T08:21:53;120.38;;;51.38;;
38797;SDS011;24546;52.240;16.826;2022-11-15T08:27:12;127.40;;;49.22;;
38797;SDS011;24546;52.240;16.826;2022-11-15T08:32:35;122.82;;;48.33;;
38797;SDS011;24546;52.240;16.826;2022-11-15T08:37:55;216.75;;;59.28;;
38797;SDS011;24546;52.240;16.826;2022-11-15T08:43:14;141.27;;;50.30;;
38797;SDS011;24546;52.240;16.826;2022-11-15T08:48:34;98.47;;;46.85;;
38797;SDS011;24546;52.240;16.826;2022-11-15T08:53:53;95.07;;;47.53;;
38797;SDS011;24546;52.240;16.826;2022-11-15T08:59:13;128.02;;;54.72;;
38797;SDS011;24546;52.240;16.826;2022-11-15T09:04:33;152.88;;;54.03;;
38797;SDS011;24546;52.240;16.826;2022-11-15T09:09:52;112.88;;;50.10;;
38797;SDS011;24546;52.240;16.826;2022-11-15T09:15:11;97.05;;;47.75;;
38797;SDS011;24546;52.240;16.826;2022-11-15T09:20:31;96.50;;;48.10;;
38797;SDS011;24546;52.240;16.826;2022-11-15T09:25:57;150.90;;;56.90;;
38797;SDS011;24546;52.240;16.826;2022-11-15T09:31:18;127.38;;;57.28;;
38797;SDS011;24546;52.240;16.826;2022-11-15T09:36:38;106.90;;;51.55;;
38797;SDS011;24546;52.240;16.826;2022-11-15T09:41:59;110.15;;;53.63;;
38797;SDS011;24546;52.240;16.826;2022-11-15T09:47:47;122.78;;;54.90;;
38797;SDS011;24546;52.240;16.826;2022-11-15T09:53:29;117.55;;;56.60;;
38797;SDS011;24546;52.240;16.826;2022-11-15T10:04:04;95.07;;;50.88;;
38797;SDS011;24546;52.240;16.826;2022-11-15T10:09:25;124.57;;;55.65;;
38797;SDS011;24546;52.240;16.826;2022-11-15T10:14:32;104.30;;;54.10;;
38797;SDS011;24546;52.240;16.826;2022-11-15T10:24:46;96.32;;;51.28;;
38797;SDS011;24546;52.240;16.826;2022-11-15T10:29:49;83.47;;;47.13;;
38797;SDS011;24546;52.240;16.826;2022-11-15T10:34:50;89.25;;;44.80;;
38797;SDS011;24546;52.240;16.826;2022-11-15T10:45:29;98.65;;;49.35;;
38797;SDS011;24546;52.240;16.826;2022-11-15T10:50:32;126.10;;;58.05;;
38797;SDS011;24546;52.240;16.826;2022-11-15T10:55:33;92.13;;;49.47;;
38797;SDS011;24546;52.240;16.826;2022-11-15T11:00:35;97.35;;;51.40;;
38797;SDS011;24546;52.240;16.826;2022-11-15T11:05:40;119.95;;;60.17;;
38797;SDS011;24546;52.240;16.826;2022-11-15T11:11:02;129.85;;;66.13;;
38797;SDS011;24546;52.240;16.826;2022-11-15T11:16:18;142.65;;;68.60;;
38797;SDS011;24546;52.240;16.826;2022-11-15T11:21:30;108.53;;;55.30;;
38797;SDS011;24546;52.240;16.826;2022-11-15T11:26:53;105.82;;;52.08;;
38797;SDS011;24546;52.240;16.826;2022-11-15T11:53:41;143.50;;;59.97;;
38797;SDS011;24546;52.240;16.826;2022-11-15T11:58:48;125.35;;;61.97;;
38797;SDS011;24546;52.240;16.826;2022-11-15T12:03:59;113.75;;;56.33;;
38797;SDS011;24546;52.240;16.826;2022-11-15T12:09:16;130.13;;;58.80;;
38797;SDS011;24546;52.240;16.826;2022-11-15T12:14:26;148.13;;;58.63;;
38797;SDS011;24546;52.240;16.826;2022-11-15T12:19:28;141.07;;;57.20;;
38797;SDS011;24546;52.240;16.826;2022-11-15T12:24:41;108.63;;;54.15;;
38797;SDS011;24546;52.240;16.826;2022-11-15T12:29:53;122.70;;;58.83;;
38797;SDS011;24546;52.240;16.826;2022-11-15T12:34:57;120.72;;;60.33;;
38797;SDS011;24546;52.240;16.826;2022-11-15T12:40:16;104.50;;;54.17;;
38797;SDS011;24546;52.240;16.826;2022-11-15T12:45:26;107.43;;;53.55;;
38797;SDS011;24546;52.240;16.826;2022-11-15T13:06:36;115.55;;;53.83;;
38797;SDS011;24546;52.240;16.826;2022-11-15T13:11:47;125.18;;;53.67;;
38797;SDS011;24546;52.240;16.826;2022-11-15T13:16:55;124.80;;;57.15;;
38797;SDS011;24546;52.240;16.826;2022-11-15T13:21:58;157.18;;;57.53;;
38797;SDS011;24546;52.240;16.826;2022-11-15T13:27:18;130.90;;;57.20;;
38797;SDS011;24546;52.240;16.826;2022-11-15T13:32:20;122.40;;;54.90;;
38797;SDS011;24546;52.240;16.826;2022-11-15T13:42:25;166.95;;;60.92;;
38797;SDS011;24546;52.240;16.826;2022-11-15T13:47:29;148.10;;;53.97;;
38797;SDS011;24546;52.240;16.826;2022-11-15T13:52:31;158.07;;;58.17;;
38797;SDS011;24546;52.240;16.826;2022-11-15T14:02:41;135.07;;;53.47;;
38797;SDS011;24546;52.240;16.826;2022-11-15T14:07:52;159.80;;;56.88;;
38797;SDS011;24546;52.240;16.826;2022-11-15T14:12:54;152.35;;;57.53;;
38797;SDS011;24546;52.240;16.826;2022-11-15T14:17:55;119.65;;;55.47;;
38797;SDS011;24546;52.240;16.826;2022-11-15T14:28:09;243.93;;;69.45;;
38797;SDS011;24546;52.240;16.826;2022-11-15T14:38:37;127.38;;;52.85;;
38797;SDS011;24546;52.240;16.826;2022-11-15T14:43:38;138.35;;;57.22;;
38797;SDS011;24546;52.240;16.826;2022-11-15T14:48:39;151.52;;;60.92;;
38797;SDS011;24546;52.240;16.826;2022-11-15T14:53:40;131.93;;;60.45;;
38797;SDS011;24546;52.240;16.826;2022-11-15T14:58:42;161.52;;;67.18;;
38797;SDS011;24546;52.240;16.826;2022-11-15T15:03:43;209.27;;;66.50;;
38797;SDS011;24546;52.240;16.826;2022-11-15T15:08:45;184.05;;;57.67;;
38797;SDS011;24546;52.240;16.826;2022-11-15T15:13:48;163.90;;;62.88;;
38797;SDS011;24546;52.240;16.826;2022-11-15T15:18:49;219.32;;;60.15;;
38797;SDS011;24546;52.240;16.826;2022-11-15T15:23:51;258.88;;;78.20;;
38797;SDS011;24546;52.240;16.826;2022-11-15T15:28:54;275.10;;;83.15;;
38797;SDS011;24546;52.240;16.826;2022-11-15T15:33:55;146.82;;;65.53;;
38797;SDS011;24546;52.240;16.826;2022-11-15T15:38:57;221.20;;;75.07;;
38797;SDS011;24546;52.240;16.826;2022-11-15T15:43:59;350.13;;;89.35;;
38797;SDS011;24546;52.240;16.826;2022-11-15T15:49:00;221.80;;;73.63;;
38797;SDS011;24546;52.240;16.826;2022-11-15T15:54:01;182.40;;;69.78;;
38797;SDS011;24546;52.240;16.826;2022-11-15T15:59:02;146.48;;;60.78;;
38797;SDS011;24546;52.240;16.826;2022-11-15T16:04:03;128.23;;;54.20;;
38797;SDS011;24546;52.240;16.826;2022-11-15T16:09:04;305.55;;;78.07;;
38797;SDS011;24546;52.240;16.826;2022-11-15T16:14:08;214.30;;;70.60;;
38797;SDS011;24546;52.240;16.826;2022-11-15T16:19:10;147.52;;;61.00;;
38797;SDS011;24546;52.240;16.826;2022-11-15T16:24:11;154.13;;;58.67;;
38797;SDS011;24546;52.240;16.826;2022-11-15T16:29:12;171.55;;;62.47;;
38797;SDS011;24546;52.240;16.826;2022-11-15T16:34:13;156.73;;;70.15;;
38797;SDS011;24546;52.240;16.826;2022-11-15T16:39:14;174.30;;;70.05;;
38797;SDS011;24546;52.240;16.826;2022-11-15T16:44:18;150.40;;;65.65;;
38797;SDS011;24546;52.240;16.826;2022-11-15T16:49:19;181.60;;;80.20;;
38797;SDS011;24546;52.240;16.826;2022-11-15T16:54:21;181.02;;;71.10;;
38797;SDS011;24546;52.240;16.826;2022-11-15T16:59:21;157.43;;;57.65;;
38797;SDS011;24546;52.240;16.826;2022-11-15T17:04:22;125.93;;;59.03;;
38797;SDS011;24546;52.240;16.826;2022-11-15T17:09:23;132.18;;;59.00;;
38797;SDS011;24546;52.240;16.826;2022-11-15T17:14:25;129.13;;;50.75;;
38797;SDS011;24546;52.240;16.826;2022-11-15T17:19:26;120.63;;;51.33;;
38797;SDS011;24546;52.240;16.826;2022-11-15T17:24:28;135.43;;;58.70;;
38797;SDS011;24546;52.240;16.826;2022-11-15T17:29:29;108.15;;;50.47;;
38797;SDS011;24546;52.240;16.826;2022-11-15T17:34:30;148.77;;;54.67;;
38797;SDS011;24546;52.240;16.826;2022-11-15T17:39:31;118.40;;;65.13;;
38797;SDS011;24546;52.240;16.826;2022-11-15T17:44:33;101.78;;;47.13;;
38797;SDS011;24546;52.240;16.826;2022-11-15T17:49:36;134.77;;;58.05;;
38797;SDS011;24546;52.240;16.826;2022-11-15T17:54:40;136.00;;;60.60;;
38797;SDS011;24546;52.240;16.826;2022-11-15T17:59:41;125.45;;;59.20;;
38797;SDS011;24546;52.240;16.826;2022-11-15T18:04:42;203.10;;;71.30;;
38797;SDS011;24546;52.240;16.826;2022-11-15T18:09:43;293.38;;;81.90;;
38797;SDS011;24546;52.240;16.826;2022-11-15T18:14:44;136.93;;;61.90;;
38797;SDS011;24546;52.240;16.826;2022-11-15T18:19:45;139.10;;;60.78;;
38797;SDS011;24546;52.240;16.826;2022-11-15T18:24:47;195.70;;;69.53;;
38797;SDS011;24546;52.240;16.826;2022-11-15T18:29:48;189.23;;;78.15;;
38797;SDS011;24546;52.240;16.826;2022-11-15T18:34:49;161.10;;;71.95;;
38797;SDS011;24546;52.240;16.826;2022-11-15T18:39:51;157.35;;;69.30;;
38797;SDS011;24546;52.240;16.826;2022-11-15T18:44:52;161.43;;;67.90;;
38797;SDS011;24546;52.240;16.826;2022-11-15T18:49:53;158.63;;;68.32;;
38797;SDS011;24546;52.240;16.826;2022-11-15T18:54:57;153.40;;;68.75;;
38797;SDS011;24546;52.240;16.826;2022-11-15T18:59:58;147.90;;;64.80;;
38797;SDS011;24546;52.240;16.826;2022-11-15T19:05:00;151.57;;;64.25;;
38797;SDS011;24546;52.240;16.826;2022-11-15T19:10:01;142.40;;;63.78;;
38797;SDS011;24546;52.240;16.826;2022-11-15T19:15:02;145.10;;;62.17;;
38797;SDS011;24546;52.240;16.826;2022-11-15T19:20:04;154.50;;;62.88;;
38797;SDS011;24546;52.240;16.826;2022-11-15T19:25:06;164.23;;;66.20;;
38797;SDS011;24546;52.240;16.826;2022-11-15T19:30:08;162.43;;;65.72;;
38797;SDS011;24546;52.240;16.826;2022-11-15T19:35:09;136.25;;;57.40;;
38797;SDS011;24546;52.240;16.826;2022-11-15T19:40:11;157.60;;;63.20;;
38797;SDS011;24546;52.240;16.826;2022-11-15T19:45:12;123.90;;;52.30;;
38797;SDS011;24546;52.240;16.826;2022-11-15T19:50:13;139.60;;;57.90;;
38797;SDS011;24546;52.240;16.826;2022-11-15T19:55:14;135.10;;;56.92;;
38797;SDS011;24546;52.240;16.826;2022-11-15T20:00:15;142.95;;;58.33;;
38797;SDS011;24546;52.240;16.826;2022-11-15T20:05:19;137.00;;;55.78;;
38797;SDS011;24546;52.240;16.826;2022-11-15T20:10:20;170.25;;;68.47;;
38797;SDS011;24546;52.240;16.826;2022-11-15T20:15:21;152.52;;;61.28;;
38797;SDS011;24546;52.240;16.826;2022-11-15T20:20:25;124.93;;;56.35;;
38797;SDS011;24546;52.240;16.826;2022-11-15T20:25:34;122.28;;;48.85;;
38797;SDS011;24546;52.240;16.826;2022-11-15T20:30:38;128.30;;;52.33;;
38797;SDS011;24546;52.240;16.826;2022-11-15T20:35:53;115.38;;;48.63;;
38797;SDS011;24546;52.240;16.826;2022-11-15T20:45:55;131.15;;;50.92;;
38797;SDS011;24546;52.240;16.826;2022-11-15T20:51:13;133.35;;;49.38;;
38797;SDS011;24546;52.240;16.826;2022-11-15T20:56:17;129.93;;;49.17;;
38797;SDS011;24546;52.240;16.826;2022-11-15T21:01:20;132.90;;;48.33;;
38797;SDS011;24546;52.240;16.826;2022-11-15T21:06:24;153.43;;;56.25;;
38797;SDS011;24546;52.240;16.826;2022-11-15T21:11:29;162.15;;;55.08;;
38797;SDS011;24546;52.240;16.826;2022-11-15T21:16:49;178.98;;;61.20;;
38797;SDS011;24546;52.240;16.826;2022-11-15T21:21:54;175.82;;;56.08;;
38797;SDS011;24546;52.240;16.826;2022-11-15T21:26:55;161.43;;;52.92;;
38797;SDS011;24546;52.240;16.826;2022-11-15T21:32:00;136.90;;;51.30;;
38797;SDS011;24546;52.240;16.826;2022-11-15T21:37:04;131.38;;;50.80;;
38797;SDS011;24546;52.240;16.826;2022-11-15T21:42:09;130.00;;;48.88;;
38797;SDS011;24546;52.240;16.826;2022-11-15T21:47:13;132.40;;;50.38;;
38797;SDS011;24546;52.240;16.826;2022-11-15T21:52:25;115.60;;;47.17;;
38797;SDS011;24546;52.240;16.826;2022-11-15T21:57:28;115.65;;;48.00;;
38797;SDS011;24546;52.240;16.826;2022-11-15T22:02:31;124.75;;;49.75;;
38797;SDS011;24546;52.240;16.826;2022-11-15T22:07:36;135.35;;;51.92;;
38797;SDS011;24546;52.240;16.826;2022-11-15T22:12:37;130.63;;;49.75;;
38797;SDS011;24546;52.240;16.826;2022-11-15T22:17:38;113.90;;;45.88;;
38797;SDS011;24546;52.240;16.826;2022-11-15T22:23:16;117.57;;;46.75;;
38797;SDS011;24546;52.240;16.826;2022-11-15T22:33:52;115.45;;;43.90;;
38797;SDS011;24546;52.240;16.826;2022-11-15T22:38:53;116.53;;;44.35;;
38797;SDS011;24546;52.240;16.826;2022-11-15T22:44:08;122.97;;;46.00;;
38797;SDS011;24546;52.240;16.826;2022-11-15T22:49:09;127.95;;;50.28;;
38797;SDS011;24546;52.240;16.826;2022-11-15T22:54:15;130.02;;;45.47;;
38797;SDS011;24546;52.240;16.826;2022-11-15T22:59:25;143.10;;;52.72;;
38797;SDS011;24546;52.240;16.826;2022-11-15T23:04:29;130.75;;;46.92;;
38797;SDS011;24546;52.240;16.826;2022-11-15T23:09:30;116.35;;;44.53;;
38797;SDS011;24546;52.240;16.826;2022-11-15T23:14:36;115.88;;;45.97;;
38797;SDS011;24546;52.240;16.826;2022-11-15T23:19:42;107.70;;;41.77;;
38797;SDS011;24546;52.240;16.826;2022-11-15T23:24:48;82.90;;;35.05;;
38797;SDS011;24546;52.240;16.826;2022-11-15T23:29:50;85.15;;;35.65;;
38797;SDS011;24546;52.240;16.826;2022-11-15T23:35:10;85.18;;;35.92;;
38797;SDS011;24546;52.240;16.826;2022-11-15T23:45:20;86.38;;;34.97;;
38797;SDS011;24546;52.240;16.826;2022-11-15T23:50:21;90.43;;;34.58;;
38797;SDS011;24546;52.240;16.826;2022-11-15T23:55:27;80.70;;;35.70;;
